Time;durP1;ratioP1;P1;durP2;ratioP2;P2;SDS_P1;SDS_P2;PMS_P1;PMS_P2;Temp;Humidity;BMP_temperature;BMP_pressure;BME280_temperature;BME280_humidity;BME280_pressure;Samples;Min_cycle;Max_cycle;Signal;HPM_P1;HPM_P2
2022/05/31 00:02:23;;;;;;;5.82;3.97;;;;;;;8.37;100.00;101565.03;4882347;29;21947;-79
2022/05/31 00:04:52;;;;;;;;;;;;;;;8.38;100.00;101566.81;4921039;29;20047;-79
2022/05/31 00:07:20;;;;;;;5.78;4.25;;;;;;;8.37;100.00;101567.66;4925901;29;20045;-80
2022/05/31 00:09:49;;;;;;;4.20;3.90;;;;;;;8.38;100.00;101565.06;4937925;28;20056;-80
2022/05/31 00:12:18;;;;;;;6.43;4.30;;;;;;;8.42;100.00;101568.69;4924891;29;20035;-79
2022/05/31 00:14:46;;;;;;;4.57;4.18;;;;;;;8.45;100.00;101554.75;4955027;28;20040;-79
2022/05/31 00:17:16;;;;;;;7.05;4.78;;;;;;;8.47;100.00;101566.16;4925474;29;20048;-81
2022/05/31 00:19:44;;;;;;;4.53;4.13;;;;;;;8.48;100.00;101558.34;4898885;29;20152;-79
2022/05/31 00:22:20;;;;;;;4.60;4.30;;;;;;;8.50;100.00;101554.00;4938924;28;20075;-80
2022/05/31 00:24:50;;;;;;;5.10;4.63;;;;;;;8.52;100.00;101554.91;4928589;29;20040;-80
2022/05/31 00:27:21;;;;;;;5.65;4.95;;;;;;;8.55;100.00;101562.00;4933771;28;20502;-80
2022/05/31 00:29:50;;;;;;;5.40;4.90;;;;;;;8.56;100.00;101554.16;4930890;29;20056;-80
2022/05/31 00:32:25;;;;;;;8.10;4.78;;;;;;;8.57;100.00;101552.41;4928159;29;20405;-80
2022/05/31 00:34:57;;;;;;;6.07;5.00;;;;;;;8.59;100.00;101554.22;4885979;29;20036;-79
2022/05/31 00:37:25;;;;;;;7.03;4.60;;;;;;;8.59;100.00;101556.84;4915287;29;20541;-80
2022/05/31 00:39:54;;;;;;;8.80;4.97;;;;;;;8.61;100.00;101554.25;4942802;29;20405;-79
2022/05/31 00:42:22;;;;;;;6.68;5.63;;;;;;;8.62;100.00;101560.38;4900057;29;20240;-80
2022/05/31 00:44:51;;;;;;;5.57;5.07;;;;;;;8.63;100.00;101563.06;4919175;29;20044;-80
2022/05/31 00:47:28;;;;;;;5.70;5.20;;;;;;;8.63;100.00;101556.91;4901931;29;20070;-80
2022/05/31 00:50:07;;;;;;;5.68;5.15;;;;;;;8.64;100.00;101556.03;4913988;28;20054;-79
2022/05/31 00:52:45;;;;;;;5.60;5.03;;;;;;;8.65;100.00;101547.31;4925795;29;20044;-80
2022/05/31 00:55:19;;;;;;;5.65;5.25;;;;;;;8.64;100.00;101543.81;4919876;29;20040;-79
2022/05/31 00:58:11;;;;;;;7.00;5.50;;;;;;;8.65;100.00;101549.97;4920169;29;20498;-79
2022/05/31 01:00:40;;;;;;;8.15;5.32;;;;;;;8.64;100.00;101561.31;4942636;28;20274;-79
2022/05/31 01:03:14;;;;;;;5.83;4.73;;;;;;;8.63;100.00;101542.03;4942020;28;20053;-79
2022/05/31 01:05:43;;;;;;;5.55;4.82;;;;;;;8.65;100.00;101550.84;4901705;29;20040;-79
2022/05/31 01:08:12;;;;;;;5.63;5.18;;;;;;;8.67;100.00;101561.38;4941016;28;20043;-80
2022/05/31 01:11:08;;;;;;;5.75;5.22;;;;;;;8.66;100.00;101544.75;4911406;29;20055;-78
2022/05/31 01:13:55;;;;;;;5.72;5.30;;;;;;;8.67;100.00;101550.88;4931033;28;20028;-79
2022/05/31 01:17:01;;;;;;;6.22;5.72;;;;;;;8.67;100.00;101545.63;4939089;28;20100;-79
2022/05/31 01:20:01;;;;;;;7.45;5.20;;;;;;;8.67;100.00;101546.50;4918854;29;20055;-79
2022/05/31 01:22:42;;;;;;;5.45;4.70;;;;;;;8.68;100.00;101542.16;4915572;29;20047;-80
2022/05/31 01:25:25;;;;;;;5.88;5.15;;;;;;;8.68;100.00;101542.16;4940723;29;20687;-80
2022/05/31 01:28:09;;;;;;;6.35;5.35;;;;;;;8.67;100.00;101536.00;4929441;28;20048;-80
2022/05/31 01:30:58;;;;;;;6.68;5.30;;;;;;;8.68;100.00;101550.03;4953502;28;20043;-79
2022/05/31 01:33:29;;;;;;;7.00;5.43;;;;;;;8.66;100.00;101544.75;4926370;29;20047;-80
2022/05/31 01:36:05;;;;;;;6.32;4.78;;;;;;;8.66;100.00;101543.81;4909059;28;20405;-79
2022/05/31 01:38:41;;;;;;;6.53;4.53;;;;;;;8.64;100.00;101543.81;4927441;29;20052;-79
2022/05/31 01:41:10;;;;;;;5.68;4.85;;;;;;;8.66;100.00;101549.09;4924396;29;20538;-80
2022/05/31 01:43:43;;;;;;;5.30;4.82;;;;;;;8.66;100.00;101543.81;4932170;28;20051;-79
2022/05/31 01:46:16;;;;;;;5.00;4.57;;;;;;;8.68;100.00;101547.41;4933505;28;20070;-78
2022/05/31 01:48:45;;;;;;;5.65;5.15;;;;;;;8.69;100.00;101543.91;4944802;28;20425;-79
2022/05/31 01:51:14;;;;;;;5.65;4.00;;;;;;;8.69;100.00;101542.16;4885314;28;20686;-80
2022/05/31 01:53:43;;;;;;;4.88;4.32;;;;;;;8.69;100.00;101550.03;4897025;29;20047;-80
2022/05/31 01:56:13;;;;;;;5.53;4.57;;;;;;;8.69;100.00;101543.91;4941446;28;20222;-78
2022/05/31 01:58:47;;;;;;;6.60;4.00;;;;;;;8.70;100.00;101543.94;4936536;28;20409;-79
2022/05/31 02:01:17;;;;;;;4.85;4.32;;;;;;;8.70;100.00;101545.69;4921768;29;20071;-79
2022/05/31 02:03:47;;;;;;;4.68;4.20;;;;;;;8.70;100.00;101540.44;4942977;28;20047;-80
2022/05/31 02:06:27;;;;;;;5.47;4.32;;;;;;;8.71;100.00;101531.69;4907738;28;20062;-79
2022/05/31 02:08:58;;;;;;;7.20;3.90;;;;;;;8.73;100.00;101540.50;4930380;29;20048;-79
2022/05/31 02:11:27;;;;;;;4.82;4.38;;;;;;;8.74;100.00;101535.28;4932179;29;20265;-79
2022/05/31 02:14:03;;;;;;;3.92;3.45;;;;;;;8.75;100.00;101534.44;4926298;28;20071;-79
2022/05/31 02:16:33;;;;;;;;;;;;;;;8.77;100.00;101543.25;4899090;29;20047;-79
2022/05/31 02:19:31;;;;;;;4.53;4.22;;;;;;;8.77;100.00;101535.34;4930736;28;19923;-79
2022/05/31 02:22:06;;;;;;;4.90;4.07;;;;;;;8.81;100.00;101538.03;4898679;28;20032;-80
2022/05/31 02:24:35;;;;;;;3.75;3.45;;;;;;;8.80;100.00;101531.88;4915827;29;20044;-79
2022/05/31 02:27:05;;;;;;;4.57;4.18;;;;;;;8.83;100.00;101536.31;4928268;29;20047;-79
2022/05/31 02:29:36;;;;;;;5.50;4.65;;;;;;;8.82;100.00;101531.94;4930738;29;20043;-79
2022/05/31 02:32:07;;;;;;;4.88;4.05;;;;;;;8.84;100.00;101540.72;4920189;29;20054;-79
2022/05/31 02:34:43;;;;;;;4.28;3.90;;;;;;;8.85;100.00;101530.25;4917095;29;20059;-79
2022/05/31 02:37:14;;;;;;;4.10;3.70;;;;;;;8.87;100.00;101541.69;4899395;28;20055;-79
2022/05/31 02:39:43;;;;;;;4.70;4.30;;;;;;;8.87;100.00;101536.44;4930903;29;20044;-79
2022/05/31 02:42:12;;;;;;;4.80;3.70;;;;;;;8.89;100.00;101537.34;4918758;29;20460;-81
2022/05/31 02:44:41;;;;;;;4.22;3.92;;;;;;;8.89;100.00;101536.47;4935769;29;20055;-80
2022/05/31 02:47:10;;;;;;;4.80;4.50;;;;;;;8.89;100.00;101534.72;4925023;28;20608;-80
2022/05/31 02:49:40;;;;;;;5.20;4.45;;;;;;;8.89;100.00;101532.09;4915203;29;20051;-80
2022/05/31 02:52:09;;;;;;;5.65;3.80;;;;;;;8.89;100.00;101534.72;4885104;29;20237;-80
2022/05/31 02:54:38;;;;;;;4.10;3.65;;;;;;;8.90;100.00;101536.50;4945558;28;20501;-79
2022/05/31 02:57:21;;;;;;;5.97;3.35;;;;;;;8.89;100.00;101532.09;4955641;28;20261;-80
2022/05/31 03:00:10;;;;;;;3.92;3.58;;;;;;;8.90;100.00;101530.34;4933375;29;20055;-79
2022/05/31 03:03:05;;;;;;;4.38;4.07;;;;;;;8.91;100.00;101532.13;4903664;29;20508;-79
2022/05/31 03:05:52;;;;;;;8.00;4.05;;;;;;;8.91;100.00;101529.50;4942137;28;20043;-79
2022/05/31 03:08:26;;;;;;;4.72;4.20;;;;;;;8.90;100.00;101539.13;4899427;28;20158;-79
2022/05/31 03:11:10;;;;;;;5.00;4.05;;;;;;;8.89;100.00;101531.22;4897882;29;20694;-79
2022/05/31 03:13:39;;;;;;;5.88;3.85;;;;;;;8.90;100.00;101532.97;4932023;29;20051;-79
2022/05/31 03:16:07;;;;;;;4.28;3.58;;;;;;;8.90;100.00;101533.88;4943349;28;20070;-80
2022/05/31 03:18:49;;;;;;;5.18;4.45;;;;;;;8.90;100.00;101523.38;4937634;28;20063;-81
2022/05/31 03:21:26;;;;;;;4.22;3.63;;;;;;;8.90;100.00;101527.72;4938398;28;20155;-79
2022/05/31 03:24:02;;;;;;;4.68;3.40;;;;;;;8.90;100.00;101522.44;4900958;29;20055;-80
2022/05/31 03:26:32;;;;;;;7.68;4.63;;;;;;;8.89;100.00;101526.84;4944458;28;20058;-79
2022/05/31 03:29:02;;;;;;;4.45;3.72;;;;;;;8.91;100.00;101529.50;4915111;29;20052;-79
2022/05/31 03:31:31;;;;;;;4.72;3.78;;;;;;;8.92;100.00;101526.91;4898809;29;20409;-78
2022/05/31 03:34:00;;;;;;;5.35;4.30;;;;;;;8.92;100.00;101524.28;4904925;29;20044;-80
2022/05/31 03:36:28;;;;;;;5.63;3.55;;;;;;;8.91;100.00;101519.00;4946473;28;20044;-79
2022/05/31 03:39:06;;;;;;;4.32;3.95;;;;;;;8.91;100.00;101521.63;4913658;28;20405;-80
2022/05/31 03:41:35;;;;;;;4.50;4.03;;;;;;;8.93;100.00;101525.16;4898411;29;20051;-79
2022/05/31 03:44:05;;;;;;;3.72;3.42;;;;;;;8.94;100.00;101524.28;4911702;29;20048;-81
2022/05/31 03:46:52;;;;;;;4.82;3.75;;;;;;;8.96;100.00;101525.22;4928081;29;20058;-79
2022/05/31 03:49:42;;;;;;;5.47;4.35;;;;;;;8.98;100.00;101519.13;4894906;29;20055;-80
2022/05/31 03:52:13;;;;;;;;;;;;;;;9.01;100.00;101517.44;4928121;29;20051;-79
2022/05/31 03:54:43;;;;;;;6.90;4.15;;;;;;;9.03;100.00;101521.84;4916812;28;19923;-80
2022/05/31 03:57:16;;;;;;;5.53;4.40;;;;;;;9.05;100.00;101517.50;4909897;29;20264;-79
2022/05/31 03:59:51;;;;;;;5.55;3.90;;;;;;;9.08;100.00;101524.59;4941385;28;20043;-79
2022/05/31 04:02:22;;;;;;;5.35;4.95;;;;;;;9.11;100.00;101516.75;4943117;28;20078;-79
2022/05/31 04:04:51;;;;;;;5.05;4.50;;;;;;;9.15;100.00;101515.97;4917800;29;20382;-79
2022/05/31 04:07:20;;;;;;;4.82;4.45;;;;;;;9.16;100.00;101521.25;4896524;29;20031;-80
2022/05/31 04:09:48;;;;;;;5.35;4.85;;;;;;;9.19;100.00;101517.81;4917338;28;20050;-80
2022/05/31 04:12:22;;;;;;;6.57;4.20;;;;;;;9.24;100.00;101520.50;4943313;28;20288;-79
2022/05/31 04:15:14;;;;;;;6.35;4.93;;;;;;;9.25;100.00;101519.66;4938730;28;20368;-80
2022/05/31 04:17:43;;;;;;;5.43;4.57;;;;;;;9.27;100.00;101520.56;4924593;29;20489;-80
2022/05/31 04:20:11;;;;;;;6.35;4.88;;;;;;;9.30;100.00;101518.00;4924569;28;20066;-80
2022/05/31 04:22:40;;;;;;;6.95;5.47;;;;;;;9.34;100.00;101525.09;4942790;28;20047;-80
2022/05/31 04:25:34;;;;;;;6.43;5.82;;;;;;;9.36;100.00;101513.75;4899631;28;20536;-80
2022/05/31 04:28:25;;;;;;;8.35;7.10;;;;;;;9.40;100.00;101519.94;4923957;29;20043;-80
2022/05/31 04:31:26;;;;;;;8.25;6.32;;;;;;;9.43;100.00;101520.00;4939068;28;20036;-79
2022/05/31 04:34:14;;;;;;;10.95;7.47;;;;;;;9.46;100.00;101509.53;4925145;29;20070;-79
2022/05/31 04:36:43;;;;;;;7.97;6.75;;;;;;;9.50;100.00;101519.25;4910310;28;20048;-79
2022/05/31 04:39:12;;;;;;;10.82;7.07;;;;;;;9.54;100.00;101514.94;4941227;28;20726;-79
2022/05/31 04:41:46;;;;;;;9.73;7.40;;;;;;;9.57;100.00;101522.91;4901040;29;20070;-79
2022/05/31 04:44:22;;;;;;;10.27;8.18;;;;;;;9.57;100.00;101518.50;4927563;28;20273;-79
2022/05/31 04:46:51;;;;;;;10.00;7.70;;;;;;;9.61;100.00;101521.22;4914582;29;20040;-80
2022/05/31 04:49:34;;;;;;;8.07;6.85;;;;;;;9.64;100.00;101515.97;4896425;29;20067;-81
2022/05/31 04:52:03;;;;;;;9.65;8.60;;;;;;;9.66;100.00;101512.53;4925165;28;20044;-79
2022/05/31 04:54:43;;;;;;;9.27;8.25;;;;;;;9.69;100.00;101516.94;4921482;28;20036;-81
2022/05/31 04:57:20;;;;;;;11.43;8.70;;;;;;;9.71;100.00;101525.75;4914066;28;20241;-80
2022/05/31 04:59:48;;;;;;;12.45;8.70;;;;;;;9.73;100.00;101519.69;4925950;29;20064;-80
2022/05/31 05:02:17;;;;;;;13.07;9.07;;;;;;;9.77;100.00;101520.59;4927798;29;20473;-80
2022/05/31 05:04:54;;;;;;;8.85;7.20;;;;;;;9.79;100.00;101512.72;4902827;29;20046;-80
2022/05/31 05:07:56;;;;;;;8.80;7.90;;;;;;;9.82;100.00;101507.53;4882243;29;20044;-78
2022/05/31 05:10:28;;;;;;;9.45;8.18;;;;;;;9.84;100.00;101522.47;4897833;29;20052;-79
2022/05/31 05:13:20;;;;;;;10.15;8.60;;;;;;;9.87;100.00;101512.00;4902545;29;20360;-80
2022/05/31 05:16:01;;;;;;;9.88;8.88;;;;;;;9.89;100.00;101507.66;4941570;28;20431;-82
2022/05/31 05:18:38;;;;;;;13.02;9.00;;;;;;;9.92;100.00;101510.34;4899017;29;20043;-80
2022/05/31 05:21:10;;;;;;;15.73;10.27;;;;;;;9.96;100.00;101506.00;4911928;29;20039;-79
2022/05/31 05:23:42;;;;;;;9.52;8.45;;;;;;;9.99;100.00;101513.97;4900206;29;20048;-80
2022/05/31 05:26:15;;;;;;;13.80;9.60;;;;;;;9.99;100.00;101506.06;4933623;28;20244;-80
2022/05/31 05:31:52;;;;;;;9.25;8.40;;;;;;;10.01;100.00;101504.31;4920206;29;20048;-80
2022/05/31 05:34:39;;;;;;;7.95;7.15;;;;;;;10.03;100.00;101493.81;4920242;29;20409;-80
2022/05/31 05:37:16;;;;;;;8.63;7.82;;;;;;;10.07;100.00;101507.06;4938345;28;20516;-80
2022/05/31 05:39:45;;;;;;;9.85;8.57;;;;;;;10.12;100.00;101507.13;4869948;29;20071;-80
2022/05/31 05:42:43;;;;;;;9.20;8.30;;;;;;;10.15;100.00;101501.91;4898207;29;20058;-80
2022/05/31 05:45:32;;;;;;;8.10;6.95;;;;;;;10.19;100.00;101506.38;4919650;29;20051;-81
2022/05/31 05:48:02;;;;;;;9.80;8.23;;;;;;;10.23;100.00;101508.19;4948954;28;20044;-80
2022/05/31 05:50:37;;;;;;;11.75;7.82;;;;;;;10.27;100.00;101511.75;4909618;29;20044;-80
2022/05/31 05:53:10;;;;;;;9.68;7.65;;;;;;;10.31;100.00;101511.84;4931533;29;20043;-80
2022/05/31 05:55:57;;;;;;;10.82;7.82;;;;;;;10.33;100.00;101504.84;4932487;29;20351;-80
2022/05/31 05:59:01;;;;;;;8.75;7.85;;;;;;;10.37;100.00;101497.88;4888621;29;20374;-80
2022/05/31 06:02:01;;;;;;;7.80;7.13;;;;;;;10.39;100.00;101501.41;4906495;29;20238;-80
2022/05/31 06:05:14;;;;;;;8.80;6.70;;;;;;;10.44;100.00;101502.38;4938431;28;20055;-80
2022/05/31 06:07:55;;;;;;;10.57;7.45;;;;;;;10.49;100.00;101500.72;4944437;28;20178;-80
2022/05/31 06:10:48;;;;;;;8.82;7.35;;;;;;;10.54;100.00;101506.91;4919349;29;20555;-80
2022/05/31 06:13:41;;;;;;;10.18;6.97;;;;;;;10.60;100.00;101514.00;4919739;29;20613;-79
2022/05/31 06:16:11;;;;;;;7.80;6.93;;;;;;;10.67;100.00;101507.09;4917224;29;20052;-81
2022/05/31 06:18:48;;;;;;;9.13;7.38;;;;;;;10.72;100.00;101508.03;4916434;29;20036;-79
2022/05/31 06:21:21;;;;;;;8.32;7.53;;;;;;;10.81;100.00;101505.53;4933328;28;20047;-80
2022/05/31 06:23:54;;;;;;;9.10;8.18;;;;;;;10.89;100.00;101506.50;4922998;29;20043;-82
2022/05/31 06:26:23;;;;;;;7.50;6.65;;;;;;;10.99;100.00;101509.25;4910156;29;20047;-80
2022/05/31 06:29:03;;;;;;;8.23;7.30;;;;;;;11.03;100.00;101500.50;4920085;28;20043;-80
2022/05/31 06:31:32;;;;;;;10.32;7.07;;;;;;;11.10;100.00;101503.22;4907455;28;20055;-80
2022/05/31 06:34:06;;;;;;;7.53;6.75;;;;;;;11.17;100.00;101498.91;4922467;28;20230;-80
2022/05/31 06:37:05;;;;;;;9.63;7.45;;;;;;;11.28;100.00;101491.97;4902637;29;20047;-80
2022/05/31 06:39:35;;;;;;;;;;;;;;;11.33;100.00;101499.97;4930252;28;20035;-80
2022/05/31 06:42:10;;;;;;;9.95;6.90;;;;;;;11.35;100.00;101499.97;4924726;28;19999;-81
2022/05/31 06:44:59;;;;;;;12.23;6.78;;;;;;;11.38;100.00;101513.19;4867881;29;20059;-80
2022/05/31 06:47:46;;;;;;;10.27;7.50;;;;;;;11.39;100.00;101507.94;4921920;29;20051;-80
2022/05/31 06:50:44;;;;;;;11.40;7.60;;;;;;;11.41;100.00;101498.28;4878007;29;20056;-80
2022/05/31 06:59:28;;;;;;;9.35;6.68;;;;;;;11.62;100.00;101510.78;4884884;29;20206;-80
2022/05/31 07:02:04;;;;;;;;;;;;;;;11.65;100.00;101512.59;4942856;28;20500;-80
2022/05/31 07:04:37;;;;;;;9.02;6.95;;;;;;;11.70;100.00;101506.50;4916698;28;19923;-80
2022/05/31 07:07:06;;;;;;;11.10;7.18;;;;;;;11.77;100.00;101510.06;4910183;29;20055;-81
2022/05/31 07:09:53;;;;;;;8.10;6.47;;;;;;;11.90;100.00;101497.88;4931984;29;20031;-80
2022/05/31 07:12:28;;;;;;;9.38;6.38;;;;;;;12.00;100.00;101504.09;4945390;28;20266;-80
2022/05/31 07:15:16;;;;;;;5.57;5.18;;;;;;;12.14;100.00;101502.47;4898099;29;20047;-80
2022/05/31 07:18:04;;;;;;;7.80;5.53;;;;;;;12.23;100.00;101501.63;4923642;29;20043;-80
2022/05/31 07:20:34;;;;;;;9.07;5.47;;;;;;;12.22;100.00;101500.75;4947541;28;20047;-81
2022/05/31 07:23:03;;;;;;;9.02;5.57;;;;;;;12.34;100.00;101492.00;4939085;28;20044;-80
2022/05/31 07:25:34;;;;;;;5.60;4.72;;;;;;;12.53;100.00;101497.41;4902994;29;20036;-79
2022/05/31 07:28:11;;;;;;;4.43;4.03;;;;;;;12.70;100.00;101487.81;4939099;28;20555;-79
2022/05/31 07:30:40;;;;;;;4.40;4.05;;;;;;;12.81;100.00;101490.50;4869172;29;20048;-79
2022/05/31 07:33:17;;;;;;;4.82;4.20;;;;;;;12.97;100.00;101491.47;4930299;28;20051;-80
2022/05/31 07:36:07;;;;;;;;;;;;;;;13.14;100.00;101495.03;4903417;29;20386;-79
2022/05/31 07:38:50;;;;;;;4.72;4.25;;;;;;;13.22;100.00;101485.34;4921496;28;19930;-80
2022/05/31 07:41:19;;;;;;;7.07;4.45;;;;;;;13.32;100.00;101477.47;4913844;28;20051;-80
2022/05/31 07:43:48;;;;;;;4.90;4.50;;;;;;;13.44;100.00;101482.81;4897903;29;20047;-80
2022/05/31 07:46:19;;;;;;;5.50;3.60;;;;;;;13.50;100.00;101487.22;4896002;29;20726;-79
2022/05/31 07:48:48;;;;;;;4.72;3.40;;;;;;;13.53;100.00;101480.13;4915803;29;20056;-80
2022/05/31 07:51:41;;;;;;;6.25;3.83;;;;;;;13.65;100.00;101471.34;4919173;29;20489;-79
2022/05/31 07:54:31;;;;;;;8.00;4.25;;;;;;;13.74;100.00;101470.44;4946819;28;20334;-80
2022/05/31 08:00:13;;;;;;;5.45;4.10;;;;;;;13.99;100.00;101466.03;4927863;28;19923;-80
2022/05/31 08:02:48;;;;;;;5.43;4.50;;;;;;;14.06;100.00;101464.25;4901089;29;20044;-80
2022/05/31 08:05:17;;;;;;;5.60;4.25;;;;;;;14.01;100.00;101465.13;4913492;29;20060;-80
2022/05/31 08:07:45;;;;;;;5.15;4.65;;;;;;;13.99;100.00;101466.91;4903609;29;20039;-80
2022/05/31 08:10:17;;;;;;;5.15;3.78;;;;;;;14.06;100.00;101466.91;4919796;28;20054;-80
2022/05/31 08:12:45;;;;;;;3.97;3.65;;;;;;;14.03;100.00;101468.66;4935101;28;20036;-79
2022/05/31 08:15:13;;;;;;;4.78;4.28;;;;;;;14.12;100.00;101462.47;4909792;29;20039;-81
2022/05/31 08:17:43;;;;;;;7.03;4.45;;;;;;;14.20;100.00;101454.50;4900067;28;20039;-79
2022/05/31 08:20:12;;;;;;;7.78;4.22;;;;;;;14.31;100.00;101452.72;4921305;28;20432;-80
2022/05/31 08:22:41;;;;;;;7.43;4.28;;;;;;;14.42;100.00;101461.53;4941401;28;20051;-81
2022/05/31 08:25:11;;;;;;;7.22;3.97;;;;;;;14.50;100.00;101456.19;4901448;29;20282;-80
2022/05/31 08:27:39;;;;;;;4.57;4.27;;;;;;;14.62;100.00;101452.66;4920242;29;20060;-79
2022/05/31 08:30:08;;;;;;;4.63;3.97;;;;;;;14.73;100.00;101449.97;4901074;29;20299;-80
2022/05/31 08:32:36;;;;;;;8.02;4.10;;;;;;;14.85;100.00;101447.22;4946414;28;20055;-79
2022/05/31 08:35:06;;;;;;;6.03;3.75;;;;;;;14.99;100.00;101447.19;4905703;28;20043;-80
2022/05/31 08:37:54;;;;;;;5.13;3.70;;;;;;;15.13;100.00;101450.63;4943718;28;20035;-80
2022/05/31 08:40:23;;;;;;;4.95;4.45;;;;;;;15.27;100.00;101452.31;4904646;29;20047;-79
2022/05/31 08:42:58;;;;;;;4.55;3.83;;;;;;;15.36;100.00;101449.59;4928212;29;20047;-80
2022/05/31 08:45:52;;;;;;;4.72;3.40;;;;;;;15.42;100.00;101452.19;4913040;28;20267;-80
2022/05/31 08:48:33;;;;;;;3.78;3.30;;;;;;;15.30;100.00;101454.94;4879452;29;20052;-80
2022/05/31 08:57:08;;;;;;;3.75;3.10;;;;;;;14.98;99.48;101448.06;4916594;29;20039;-80
2022/05/31 08:59:59;;;;;;;4.18;3.17;;;;;;;14.93;98.06;101450.75;4936879;28;20044;-80
2022/05/31 09:02:44;;;;;;;3.58;3.10;;;;;;;14.98;99.41;101451.59;4941198;28;20690;-79
2022/05/31 09:05:26;;;;;;;4.57;2.85;;;;;;;15.06;97.17;101454.19;4907804;28;20243;-80
2022/05/31 09:08:21;;;;;;;3.28;2.95;;;;;;;15.13;95.73;101455.94;4919142;29;20048;-80
2022/05/31 09:11:02;;;;;;;5.18;2.72;;;;;;;15.23;96.65;101451.44;4938710;28;20050;-79
2022/05/31 09:13:40;;;;;;;3.38;2.80;;;;;;;15.35;96.04;101453.16;4939608;28;20040;-79
2022/05/31 09:16:16;;;;;;;3.25;2.80;;;;;;;15.45;95.11;101440.69;4921987;28;20047;-80
2022/05/31 09:18:51;;;;;;;3.83;2.75;;;;;;;15.56;96.10;101447.66;4915367;29;20041;-79
2022/05/31 09:21:25;;;;;;;3.10;2.88;;;;;;;15.47;93.69;101441.56;4920343;28;20035;-80
2022/05/31 09:23:55;;;;;;;3.00;2.80;;;;;;;15.56;94.66;101442.34;4947638;28;20039;-79
2022/05/31 09:26:46;;;;;;;4.45;3.45;;;;;;;15.50;92.67;101439.75;4927521;28;20274;-79
2022/05/31 09:29:17;;;;;;;5.80;3.15;;;;;;;15.52;91.09;101440.63;4912673;29;20623;-80
2022/05/31 09:31:55;;;;;;;5.43;3.08;;;;;;;15.54;92.20;101440.63;4917978;28;20087;-80
2022/05/31 09:34:31;;;;;;;6.18;3.60;;;;;;;15.51;92.03;101436.19;4918252;29;20054;-80
2022/05/31 09:37:17;;;;;;;4.20;2.97;;;;;;;15.53;92.86;101429.09;4944117;28;20066;-80
2022/05/31 09:39:59;;;;;;;8.05;5.63;;;;;;;15.68;93.88;101432.53;4932728;28;20056;-80
2022/05/31 09:42:36;;;;;;;6.28;3.28;;;;;;;15.82;93.31;101427.97;4918968;28;20040;-80
2022/05/31 09:45:14;;;;;;;3.78;3.38;;;;;;;15.98;92.61;101426.94;4947224;28;20048;-80
2022/05/31 09:47:43;;;;;;;5.65;3.25;;;;;;;16.10;92.54;101415.31;4930093;28;20063;-80
2022/05/31 09:50:13;;;;;;;4.22;3.78;;;;;;;16.22;91.17;101419.63;4914708;29;20063;-80
2022/05/31 09:52:45;;;;;;;3.67;3.28;;;;;;;16.33;90.43;101420.38;4871268;29;20394;-79
2022/05/31 09:58:42;;;;;;;3.47;3.13;;;;;;;16.22;87.58;101422.28;4912293;29;20048;-81
2022/05/31 10:01:30;;;;;;;5.15;3.20;;;;;;;16.10;89.38;101414.44;4904832;29;20040;-80
2022/05/31 10:04:29;;;;;;;5.25;3.40;;;;;;;15.88;89.69;101412.00;4915087;28;20397;-80
2022/05/31 10:07:01;;;;;;;3.70;3.40;;;;;;;15.75;90.27;101413.03;4907235;28;20244;-79
2022/05/31 10:09:31;;;;;;;6.80;3.33;;;;;;;15.68;90.60;101416.59;4916495;29;20046;-79
2022/05/31 10:12:10;;;;;;;6.22;3.65;;;;;;;15.65;91.57;101416.59;4942881;28;20042;-80
2022/05/31 10:14:45;;;;;;;6.72;4.25;;;;;;;15.60;89.67;101408.69;4905092;29;20075;-79
2022/05/31 10:17:46;;;;;;;5.20;3.03;;;;;;;15.72;90.35;101399.72;4922147;29;20051;-80
2022/05/31 10:20:27;;;;;;;3.00;2.80;;;;;;;15.85;90.72;101405.84;4926772;28;20422;-80
2022/05/31 10:23:04;;;;;;;3.30;3.00;;;;;;;15.97;90.22;101397.72;4904461;28;20158;-79
2022/05/31 10:25:57;;;;;;;4.47;2.80;;;;;;;16.02;88.32;101400.34;4937777;28;20282;-80
2022/05/31 10:28:55;;;;;;;6.63;3.35;;;;;;;16.05;89.50;101400.28;4916971;29;20190;-80
2022/05/31 10:31:48;;;;;;;3.33;3.03;;;;;;;16.07;88.79;101402.06;4932873;28;20242;-80
2022/05/31 10:34:44;;;;;;;4.93;3.03;;;;;;;16.09;88.58;101402.06;4914027;29;20059;-80
2022/05/31 10:37:25;;;;;;;3.58;2.95;;;;;;;16.01;87.53;101395.91;4902968;29;20531;-80
2022/05/31 10:40:10;;;;;;;5.10;3.63;;;;;;;15.91;89.05;101398.66;4903801;29;20744;-80
2022/05/31 10:42:44;;;;;;;4.60;2.78;;;;;;;15.88;87.51;101400.47;4926359;29;20059;-80
2022/05/31 10:45:21;;;;;;;4.13;2.72;;;;;;;15.79;85.87;101394.34;4922021;28;20058;-81
2022/05/31 10:47:51;;;;;;;4.00;2.95;;;;;;;15.69;86.43;101395.31;4928114;29;20500;-80
2022/05/31 10:50:21;;;;;;;3.35;2.83;;;;;;;15.66;86.17;101395.34;4898396;29;20071;-81
2022/05/31 10:53:14;;;;;;;5.60;3.08;;;;;;;15.61;84.10;101391.84;4895422;29;20456;-79
2022/05/31 10:55:53;;;;;;;2.92;2.58;;;;;;;15.50;85.39;101397.25;4897367;29;20074;-80
2022/05/31 10:58:40;;;;;;;4.85;3.40;;;;;;;15.44;85.31;101384.00;4928650;29;20079;-80
2022/05/31 11:01:21;;;;;;;8.07;3.03;;;;;;;15.51;85.77;101395.47;4932358;28;20063;-80
2022/05/31 11:04:34;;;;;;;4.57;3.40;;;;;;;15.54;86.01;101391.03;4942551;28;20043;-78
2022/05/31 11:07:13;;;;;;;4.30;2.97;;;;;;;15.61;87.45;101375.91;4914132;29;20054;-79
2022/05/31 11:13:15;;;;;;;4.45;3.65;;;;;;;15.68;86.35;101385.56;4914088;28;20052;-79
2022/05/31 11:15:58;;;;;;;6.47;3.50;;;;;;;15.69;87.91;101382.03;4920831;29;20059;-79
2022/05/31 11:18:47;;;;;;;5.35;3.88;;;;;;;15.69;87.37;101382.03;4928049;29;20051;-77
2022/05/31 11:21:41;;;;;;;6.03;3.60;;;;;;;15.72;87.81;101378.47;4928092;29;20036;-76
2022/05/31 11:24:34;;;;;;;6.82;3.63;;;;;;;15.73;84.78;101382.91;4881970;28;20385;-77
2022/05/31 11:27:21;;;;;;;5.82;4.05;;;;;;;15.72;86.41;101379.34;4914089;29;20425;-76
2022/05/31 11:30:17;;;;;;;4.15;3.15;;;;;;;15.66;84.45;101374.09;4942229;29;20052;-77
2022/05/31 11:33:24;;;;;;;5.55;4.20;;;;;;;15.62;84.41;101380.31;4915862;29;20064;-76
2022/05/31 11:36:12;;;;;;;5.47;3.70;;;;;;;15.67;86.78;101382.94;4918682;29;20055;-77
2022/05/31 11:39:02;;;;;;;6.97;4.07;;;;;;;15.69;86.51;101379.38;4920949;28;20048;-76
2022/05/31 11:41:42;;;;;;;4.50;3.50;;;;;;;15.67;84.67;101375.88;4885664;29;20052;-75
2022/05/31 11:44:35;;;;;;;4.72;3.85;;;;;;;15.65;84.14;101372.34;4915697;29;20616;-76
2022/05/31 11:47:40;;;;;;;3.90;3.40;;;;;;;15.74;85.82;101374.03;4919900;29;20070;-78
2022/05/31 11:50:19;;;;;;;4.93;3.33;;;;;;;15.83;86.43;101365.97;4930364;28;20054;-75
2022/05/31 11:53:15;;;;;;;4.40;3.30;;;;;;;15.97;85.20;101369.38;4932019;28;20706;-76
2022/05/31 11:55:57;;;;;;;5.43;3.88;;;;;;;16.16;85.37;101369.16;4863240;29;21460;-76
2022/05/31 11:58:34;;;;;;;6.40;3.40;;;;;;;16.30;83.74;101361.91;4922193;29;20039;-76
2022/05/31 12:01:06;;;;;;;4.10;3.15;;;;;;;16.40;82.84;101362.66;4898482;29;20059;-76
2022/05/31 12:03:39;;;;;;;4.80;3.17;;;;;;;16.51;80.78;101357.22;4911262;28;20532;-76
2022/05/31 12:06:22;;;;;;;5.38;3.08;;;;;;;16.69;82.70;101356.06;4937985;28;20564;-78
2022/05/31 12:09:14;;;;;;;;;;;;;;;16.99;79.67;101359.22;4921781;29;20051;-75
2022/05/31 12:11:59;;;;;;;4.00;2.72;;;;;;;17.30;79.16;101355.19;4869591;28;19927;-76
2022/05/31 12:14:30;;;;;;;4.07;2.63;;;;;;;17.48;78.02;101351.31;4929211;29;20154;-77
2022/05/31 12:17:00;;;;;;;2.88;2.53;;;;;;;17.70;76.40;101348.28;4921298;29;20055;-75
2022/05/31 12:19:52;;;;;;;4.28;2.45;;;;;;;17.91;74.14;101347.03;4922639;29;20295;-75
2022/05/31 12:22:32;;;;;;;3.13;2.83;;;;;;;18.13;74.49;101342.16;4894047;29;20269;-77
2022/05/31 12:25:33;;;;;;;3.25;2.90;;;;;;;18.12;69.62;101337.72;4927534;28;20051;-76
2022/05/31 12:28:08;;;;;;;3.88;2.67;;;;;;;18.04;73.06;101342.34;4909309;28;20048;-76
2022/05/31 12:30:55;;;;;;;4.53;2.60;;;;;;;17.88;69.51;101342.63;4920888;28;20067;-77
2022/05/31 12:33:47;;;;;;;2.58;2.33;;;;;;;17.70;71.59;101329.63;4907769;29;20060;-77
2022/05/31 12:36:23;;;;;;;4.47;2.70;;;;;;;17.49;69.82;101334.44;4919131;29;20051;-77
2022/05/31 12:39:08;;;;;;;4.20;2.42;;;;;;;17.27;70.27;101339.22;4924565;29;20059;-77
2022/05/31 12:41:43;;;;;;;2.70;2.50;;;;;;;17.06;69.19;101337.81;4909885;29;20047;-76